Time;durP1;ratioP1;P1;durP2;ratioP2;P2;SDS_P1;SDS_P2;PMS_P1;PMS_P2;Temp;Humidity;BMP_temperature;BMP_pressure;BME280_temperature;BME280_humidity;BME280_pressure;Samples;Min_cycle;Max_cycle;Signal;HPM_P1;HPM_P2
2021/03/28 00:00:15;;;;;;;3.95;1.67;;;10.00;63.00;10.20;100860.00;;;;340004;28;84281;-89
2021/03/28 00:00:27;;;;;;;5.05;2.05;;;10.00;62.70;10.00;100850.00;;;;340949;28;83823;-89
2021/03/28 00:01:14;;;;;;;5.90;2.08;;;10.00;62.60;10.10;100865.00;;;;337936;28;86876;-88
2021/03/28 00:01:45;;;;;;;5.00;2.45;;;10.00;62.40;10.30;100854.00;;;;339876;28;83780;-89
2021/03/28 00:02:31;;;;;;;4.53;2.30;;;10.00;62.70;10.30;100854.00;;;;338673;28;84927;-89
2021/03/28 00:02:53;;;;;;;6.50;1.98;;;10.00;62.90;10.20;100846.00;;;;344027;28;83569;-89
2021/03/28 00:03:05;;;;;;;7.63;1.90;;;10.00;62.50;10.20;100849.00;;;;341313;28;85046;-89
2021/03/28 00:03:45;;;;;;;5.55;1.88;;;10.00;62.60;10.10;100851.00;;;;340042;28;82382;-89
2021/03/28 00:04:04;;;;;;;6.53;1.55;;;10.00;63.00;10.00;100857.00;;;;342702;28;85783;-89
2021/03/28 00:04:16;;;;;;;8.20;1.73;;;10.00;62.70;10.00;100857.00;;;;339652;28;82709;-89
2021/03/28 00:04:54;;;;;;;6.65;1.77;;;9.90;62.80;9.90;100851.00;;;;337436;28;84367;-89
2021/03/28 00:05:29;;;;;;;4.00;1.70;;;9.90;62.90;9.90;100863.00;;;;338592;28;82471;-89
2021/03/28 00:05:40;;;;;;;6.35;2.33;;;9.90;63.30;9.80;100860.00;;;;341200;28;85733;-89
2021/03/28 00:05:52;;;;;;;4.53;1.92;;;9.90;63.70;9.90;100852.00;;;;342642;28;83461;-89
2021/03/28 00:06:34;;;;;;;4.25;1.67;;;9.90;63.70;9.90;100853.00;;;;339971;28;85740;-89
2021/03/28 00:06:49;;;;;;;5.72;2.08;;;9.90;63.10;10.00;100850.00;;;;335803;28;83560;-89
2021/03/28 00:07:02;;;;;;;6.15;1.90;;;9.90;63.20;10.00;100854.00;;;;338476;28;86891;-89
2021/03/28 00:07:14;;;;;;;4.93;1.60;;;9.80;63.20;10.10;100852.00;;;;338433;28;83446;-89
2021/03/28 00:07:40;;;;;;;4.80;1.60;;;9.80;63.30;9.80;100850.00;;;;338366;28;85738;-89
2021/03/28 00:08:01;;;;;;;5.57;2.03;;;9.80;63.60;9.70;100846.00;;;;338607;28;83642;-89
2021/03/28 00:08:18;;;;;;;5.30;2.30;;;9.80;63.70;9.80;100858.00;;;;336034;28;84891;-89
2021/03/28 00:08:30;;;;;;;5.03;2.17;;;9.80;63.70;9.90;100857.00;;;;338352;28;83545;-89
2021/03/28 00:09:11;;;;;;;4.43;2.00;;;9.80;63.50;10.10;100853.00;;;;337387;28;85702;-89
2021/03/28 00:09:34;;;;;;;4.03;1.85;;;9.80;63.40;9.90;100851.00;;;;334650;29;82513;-89
2021/03/28 00:09:53;;;;;;;4.57;2.47;;;9.80;63.20;9.80;100850.00;;;;336714;28;84157;-89
2021/03/28 00:10:10;;;;;;;5.20;1.85;;;9.80;63.40;9.80;100849.00;;;;334807;29;83333;-89
2021/03/28 00:10:38;;;;;;;7.00;2.33;;;9.80;63.40;9.80;100862.00;;;;337300;28;85443;-89
2021/03/28 00:10:55;;;;;;;4.68;2.22;;;9.80;63.60;10.00;100857.00;;;;336029;28;82408;-88
2021/03/28 00:11:19;;;;;;;3.08;1.48;;;9.80;63.70;10.00;100850.00;;;;340076;28;84589;-89
2021/03/28 00:11:31;;;;;;;4.88;1.55;;;9.80;63.70;9.90;100848.00;;;;334419;29;83302;-89
2021/03/28 00:12:10;;;;;;;5.28;1.67;;;9.80;63.80;9.80;100852.00;;;;335776;29;84699;-89
2021/03/28 00:12:40;;;;;;;3.53;2.03;;;9.70;63.80;10.10;100852.00;;;;335819;28;83503;-89
2021/03/28 00:13:22;;;;;;;7.07;2.63;;;9.80;63.50;9.80;100855.00;;;;335802;28;84213;-89
2021/03/28 00:13:34;;;;;;;4.90;1.63;;;9.80;63.40;9.70;100850.00;;;;335580;28;83751;-89
2021/03/28 00:13:54;;;;;;;5.07;1.60;;;9.80;63.60;9.90;100845.00;;;;334737;29;85269;-88
2021/03/28 00:14:05;;;;;;;5.22;1.77;;;9.80;63.50;9.90;100849.00;;;;336018;28;83276;-89
2021/03/28 00:14:35;;;;;;;4.75;2.00;;;9.80;63.30;9.90;100851.00;;;;334588;29;85648;-89
2021/03/28 00:15:08;;;;;;;4.93;2.10;;;9.80;63.80;9.90;100856.00;;;;335726;28;83522;-89
2021/03/28 00:15:21;;;;;;;4.70;1.73;;;9.70;63.10;9.90;100845.00;;;;336044;28;83911;-88
2021/03/28 00:15:37;;;;;;;5.03;1.88;;;9.70;63.00;9.80;100844.00;;;;334269;29;83458;-91
2021/03/28 00:16:09;;;;;;;5.38;1.63;;;9.70;63.00;9.90;100851.00;;;;337155;28;84856;-90
2021/03/28 00:16:43;;;;;;;4.57;1.75;;;9.70;63.10;10.00;100853.00;;;;338207;28;83796;-89
2021/03/28 00:16:54;;;;;;;4.47;1.80;;;9.70;63.10;9.80;100853.00;;;;337242;28;85504;-89
2021/03/28 00:17:20;;;;;;;5.03;1.67;;;9.70;63.00;9.90;100847.00;;;;336036;28;83387;-89
2021/03/28 00:18:13;;;;;;;6.18;2.00;;;9.70;63.30;9.80;100844.00;;;;337151;28;86204;-89
2021/03/28 00:18:35;;;;;;;5.20;2.03;;;9.70;63.40;9.90;100851.00;;;;335968;28;82543;-89
2021/03/28 00:19:06;;;;;;;6.00;2.33;;;9.70;63.40;10.00;100855.00;;;;335745;28;83549;-89
2021/03/28 00:19:29;;;;;;;3.83;2.30;;;9.70;63.50;9.90;100852.00;;;;333419;29;82514;-89
2021/03/28 00:19:40;;;;;;;4.35;2.00;;;9.70;63.80;9.80;100856.00;;;;335803;28;84724;-89
2021/03/28 00:19:59;;;;;;;4.85;2.03;;;9.80;63.90;9.90;100856.00;;;;333186;29;83741;-89
2021/03/28 00:20:16;;;;;;;5.38;2.08;;;9.70;63.80;9.90;100846.00;;;;335849;29;84661;-89
2021/03/28 00:20:30;;;;;;;5.75;2.05;;;9.70;64.20;10.10;100853.00;;;;335870;28;82353;-89
2021/03/28 00:20:42;;;;;;;5.80;2.20;;;9.70;63.60;10.00;100843.00;;;;335974;28;85341;-89
2021/03/28 00:21:13;;;;;;;5.55;2.17;;;9.70;63.60;10.20;100848.00;;;;334677;29;82588;-89
2021/03/28 00:21:50;;;;;;;4.18;2.35;;;9.80;63.50;10.10;100852.00;;;;337311;28;84473;-89
2021/03/28 00:22:05;;;;;;;3.70;1.45;;;9.80;63.50;9.90;100852.00;;;;337267;28;83428;-89
2021/03/28 00:22:22;;;;;;;4.82;2.20;;;9.80;63.70;9.80;100854.00;;;;335915;28;85444;-88
2021/03/28 00:23:01;;;;;;;5.38;2.35;;;9.80;63.90;9.80;100854.00;;;;336033;29;83271;-89
2021/03/28 00:23:23;;;;;;;4.65;1.83;;;9.70;63.60;9.90;100852.00;;;;334742;29;82865;-89
2021/03/28 00:23:49;;;;;;;5.13;1.77;;;9.70;63.50;9.90;100852.00;;;;337201;28;83429;-89
2021/03/28 00:24:27;;;;;;;5.13;1.77;;;9.70;63.60;9.90;100857.00;;;;337341;28;84647;-89
2021/03/28 00:24:40;;;;;;;6.57;2.08;;;9.70;63.90;9.90;100854.00;;;;338173;28;82737;-89
2021/03/28 00:25:19;;;;;;;5.82;1.85;;;9.70;63.60;9.70;100847.00;;;;336960;28;85208;-87
2021/03/28 00:25:37;;;;;;;7.18;2.10;;;9.70;63.50;9.60;100855.00;;;;338150;28;82703;-88
2021/03/28 00:25:54;;;;;;;5.68;1.95;;;9.70;64.00;9.70;100847.00;;;;339900;28;85546;-89
2021/03/28 00:26:36;;;;;;;5.57;2.20;;;9.70;64.00;9.70;100844.00;;;;337098;28;83734;-89
2021/03/28 00:27:07;;;;;;;3.92;1.65;;;9.70;63.80;9.60;100850.00;;;;337069;28;84589;-89
2021/03/28 00:27:25;;;;;;;6.28;2.40;;;9.60;63.90;9.60;100852.00;;;;334678;28;83475;-89
2021/03/28 00:27:49;;;;;;;5.10;2.10;;;9.60;64.00;9.60;100849.00;;;;336742;28;85962;-89
2021/03/28 00:28:08;;;;;;;3.90;1.58;;;9.60;64.00;9.60;100849.00;;;;337242;28;84007;-89
2021/03/28 00:28:42;;;;;;;4.72;1.73;;;9.60;64.10;9.60;100852.00;;;;338558;28;84750;-89
2021/03/28 00:29:13;;;;;;;5.20;2.35;;;9.60;64.00;9.50;100852.00;;;;335895;28;82482;-89
2021/03/28 00:29:25;;;;;;;3.50;1.42;;;9.60;64.00;9.40;100849.00;;;;337303;28;84923;-89
2021/03/28 00:29:57;;;;;;;4.47;1.67;;;9.50;64.10;9.40;100848.00;;;;338546;28;83445;-89
2021/03/28 00:30:24;;;;;;;5.65;1.85;;;9.50;64.40;9.70;100834.00;;;;339532;28;87551;-88
2021/03/28 00:30:39;;;;;;;5.28;2.15;;;9.50;64.30;9.80;100849.00;;;;336501;28;83474;-89
2021/03/28 00:30:50;;;;;;;5.88;1.95;;;9.50;64.20;9.80;100845.00;;;;337816;28;85326;-89
2021/03/28 00:31:29;;;;;;;5.53;2.17;;;9.60;64.10;9.70;100849.00;;;;338404;28;83101;-88
2021/03/28 00:32:07;;;;;;;4.60;1.75;;;9.50;63.90;9.40;100845.00;;;;338326;28;83849;-89
2021/03/28 00:32:23;;;;;;;5.53;1.90;;;9.60;64.20;9.40;100845.00;;;;339925;28;82422;-89
2021/03/28 00:32:52;;;;;;;5.15;1.70;;;9.50;64.20;9.30;100848.00;;;;336846;28;84989;-89
2021/03/28 00:33:09;;;;;;;5.25;2.10;;;9.50;64.40;9.40;100844.00;;;;337199;28;83352;-89
2021/03/28 00:33:25;;;;;;;5.10;1.92;;;9.40;64.60;9.50;100833.00;;;;337238;28;85629;-89
2021/03/28 00:33:36;;;;;;;6.38;2.30;;;9.40;65.00;9.50;100837.00;;;;339223;28;82910;-89
2021/03/28 00:34:18;;;;;;;5.28;2.03;;;9.40;64.30;9.60;100839.00;;;;335854;28;83864;-89
2021/03/28 00:34:39;;;;;;;4.35;1.88;;;9.40;64.20;9.70;100834.00;;;;338675;28;83359;-89
2021/03/28 00:34:53;;;;;;;4.15;1.80;;;9.40;64.30;9.60;100823.00;;;;335860;28;86187;-89
2021/03/28 00:35:09;;;;;;;5.22;1.83;;;9.40;64.10;9.40;100835.00;;;;336008;28;83320;-88
2021/03/28 00:35:26;;;;;;;5.82;2.22;;;9.40;64.20;9.20;100822.00;;;;336053;29;85498;-89
2021/03/28 00:35:46;;;;;;;5.10;1.95;;;9.40;64.30;9.20;100831.00;;;;337181;28;83433;-89
2021/03/28 00:36:00;;;;;;;4.72;2.00;;;9.40;64.40;9.50;100835.00;;;;337272;28;85543;-88
2021/03/28 00:36:16;;;;;;;3.58;1.63;;;9.40;64.50;9.40;100835.00;;;;335941;28;83378;-88
2021/03/28 00:36:44;;;;;;;4.00;1.75;;;9.40;64.70;9.30;100832.00;;;;337524;28;85987;-89
2021/03/28 00:37:09;;;;;;;7.18;2.40;;;9.40;64.70;9.30;100837.00;;;;335775;28;82558;-89
2021/03/28 00:37:26;;;;;;;4.93;1.88;;;9.40;64.90;9.30;100835.00;;;;336561;28;83168;-89
2021/03/28 00:37:38;;;;;;;3.65;1.55;;;9.40;64.70;9.50;100836.00;;;;336445;28;83201;-89
2021/03/28 00:38:12;;;;;;;3.65;1.55;;;9.40;64.70;9.60;100843.00;;;;334866;29;87173;-89
2021/03/28 00:38:38;;;;;;;4.15;1.58;;;9.40;64.90;9.30;100836.00;;;;336128;28;84456;-88
2021/03/28 00:38:55;;;;;;;5.72;2.17;;;9.40;65.10;9.40;100834.00;;;;336337;28;84320;-89
2021/03/28 00:39:10;;;;;;;5.47;1.92;;;9.40;65.10;9.50;100837.00;;;;334974;29;83700;-88
2021/03/28 00:39:39;;;;;;;5.53;1.90;;;9.40;64.90;9.70;100839.00;;;;335054;29;84961;-88
2021/03/28 00:39:54;;;;;;;4.72;1.63;;;9.40;65.00;9.70;100836.00;;;;335564;28;83381;-89
2021/03/28 00:40:08;;;;;;;4.95;1.92;;;9.40;64.80;9.70;100826.00;;;;337701;28;86127;-89
2021/03/28 00:40:21;;;;;;;4.72;2.20;;;9.50;64.80;9.70;100826.00;;;;337680;28;83300;-89
2021/03/28 00:40:33;;;;;;;4.95;2.08;;;9.50;64.70;9.70;100821.00;;;;334788;29;85151;-89
2021/03/28 00:40:44;;;;;;;4.40;1.85;;;9.40;64.50;9.70;100826.00;;;;337815;28;83265;-89
2021/03/28 00:41:08;;;;;;;5.03;1.80;;;9.40;64.40;9.60;100829.00;;;;336221;28;85522;-89
2021/03/28 00:41:46;;;;;;;5.63;2.00;;;9.40;64.60;9.60;100829.00;;;;336558;28;83227;-88
2021/03/28 00:42:10;;;;;;;4.95;1.63;;;9.40;64.50;9.60;100826.00;;;;336353;28;84993;-89
2021/03/28 00:42:42;;;;;;;3.65;1.40;;;9.40;64.60;9.60;100831.00;;;;334917;29;83492;-89
2021/03/28 00:43:18;;;;;;;4.13;1.52;;;9.40;64.70;9.50;100821.00;;;;335985;28;85943;-88
2021/03/28 00:43:30;;;;;;;4.80;1.92;;;9.40;64.90;9.50;100827.00;;;;336082;28;83318;-88
2021/03/28 00:44:05;;;;;;;4.15;1.77;;;9.40;65.50;9.50;100825.00;;;;337510;28;83620;-89
2021/03/28 00:44:19;;;;;;;4.65;1.60;;;9.40;64.90;9.50;100822.00;;;;336138;28;83565;-89
2021/03/28 00:44:31;;;;;;;4.50;1.88;;;9.40;64.70;9.50;100826.00;;;;336187;28;85338;-89
2021/03/28 00:44:51;;;;;;;3.97;1.95;;;9.40;64.60;9.70;100820.00;;;;335116;29;83229;-89
2021/03/28 00:45:45;;;;;;;4.68;1.77;;;9.40;64.60;9.70;100815.00;;;;336324;28;85523;-89
2021/03/28 00:45:57;;;;;;;6.07;2.03;;;9.50;64.90;9.60;100819.00;;;;344307;28;84750;-89
2021/03/28 00:46:09;;;;;;;6.75;2.22;;;9.50;64.80;9.60;100828.00;;;;344522;28;83981;-89
2021/03/28 00:46:36;;;;;;;5.97;2.13;;;9.50;65.30;9.50;100817.00;;;;343084;28;83365;-89
2021/03/28 00:47:04;;;;;;;5.70;1.77;;;9.50;64.80;9.60;100825.00;;;;341452;28;86169;-89
2021/03/28 00:47:24;;;;;;;3.85;1.90;;;9.40;64.70;9.60;100828.00;;;;339170;28;82188;-88
2021/03/28 00:47:36;;;;;;;5.97;2.15;;;9.40;64.70;9.50;100818.00;;;;340331;28;84194;-89
2021/03/28 00:48:21;;;;;;;6.94;2.00;;;9.40;64.90;9.60;100819.00;;;;340484;28;82565;-89
2021/03/28 00:48:33;;;;;;;6.28;2.75;;;9.40;64.90;9.60;100823.00;;;;341609;28;84682;-89
2021/03/28 00:48:49;;;;;;;6.35;2.60;;;9.40;64.80;9.60;100825.00;;;;341574;28;83462;-89
2021/03/28 00:49:01;;;;;;;4.32;2.05;;;9.40;65.40;9.70;100805.00;;;;339011;28;85160;-89
2021/03/28 00:49:40;;;;;;;3.80;2.05;;;9.40;64.90;9.90;100816.00;;;;341446;28;82833;-89
2021/03/28 00:50:20;;;;;;;3.85;1.25;;;9.50;65.10;9.70;100824.00;;;;341786;28;84961;-89
2021/03/28 00:50:34;;;;;;;5.18;1.92;;;9.50;65.10;9.80;100825.00;;;;341418;28;83558;-89
2021/03/28 00:51:08;;;;;;;5.13;2.00;;;9.50;65.10;9.80;100828.00;;;;341853;28;84417;-89
2021/03/28 00:51:20;;;;;;;7.00;2.20;;;9.50;65.00;9.70;100818.00;;;;341640;28;83378;-89
2021/03/28 00:51:33;;;;;;;6.45;1.80;;;9.50;64.90;9.80;100827.00;;;;339982;28;86902;-89
2021/03/28 00:51:47;;;;;;;3.90;1.52;;;9.50;64.90;9.80;100818.00;;;;344668;28;83543;-89
2021/03/28 00:52:23;;;;;;;3.98;1.60;;;9.50;65.00;9.90;100810.00;;;;339043;28;84972;-89
2021/03/28 00:52:42;;;;;;;4.30;1.65;;;9.50;65.00;10.00;100816.00;;;;338655;28;82691;-89
2021/03/28 00:52:59;;;;;;;5.53;2.17;;;9.60;64.90;10.00;100815.00;;;;338686;28;86014;-89
2021/03/28 00:53:13;;;;;;;5.35;2.40;;;9.60;64.80;10.00;100817.00;;;;340490;28;83376;-89
2021/03/28 00:53:41;;;;;;;4.10;2.35;;;9.60;64.80;9.90;100818.00;;;;339103;28;85445;-89
2021/03/28 00:53:58;;;;;;;3.92;1.67;;;9.60;64.70;9.80;100809.00;;;;339188;28;83427;-89
2021/03/28 00:54:15;;;;;;;3.80;1.50;;;9.60;65.20;9.80;100820.00;;;;343055;28;85709;-89
2021/03/28 00:54:43;;;;;;;6.00;1.98;;;9.60;64.70;9.80;100817.00;;;;337794;28;83372;-89
2021/03/28 00:54:58;;;;;;;5.43;2.15;;;9.60;64.70;9.80;100805.00;;;;339089;28;85799;-88
2021/03/28 00:55:29;;;;;;;4.07;1.80;;;9.60;65.00;9.90;100820.00;;;;340672;28;83574;-89
2021/03/28 00:55:58;;;;;;;4.45;1.90;;;9.60;64.90;9.70;100816.00;;;;343568;28;85862;-89
2021/03/28 00:56:40;;;;;;;5.72;2.28;;;9.60;65.60;9.70;100819.00;;;;341880;28;82421;-89
2021/03/28 00:56:55;;;;;;;5.63;2.10;;;9.60;65.20;9.80;100806.00;;;;341835;28;85765;-89
2021/03/28 00:57:34;;;;;;;5.60;1.95;;;9.60;64.90;10.00;100805.00;;;;343189;28;82684;-89
2021/03/28 00:58:31;;;;;;;8.52;2.26;;;9.60;65.30;9.70;100815.00;;;;342097;28;86224;-89
2021/03/28 00:59:02;;;;;;;4.65;1.98;;;9.60;65.20;9.80;100809.00;;;;339202;28;82986;-89
2021/03/28 00:59:57;;;;;;;5.90;2.15;;;9.60;65.10;9.90;100802.00;;;;337932;28;84959;-89
2021/03/28 01:00:20;;;;;;;3.97;1.70;;;9.60;65.30;9.80;100818.00;;;;334960;29;82482;-88
2021/03/28 01:00:47;;;;;;;4.75;1.85;;;9.60;65.30;9.90;100803.00;;;;336489;28;84145;-89
2021/03/28 01:01:13;;;;;;;7.70;2.55;;;9.60;65.10;9.80;100808.00;;;;338067;28;83480;-89
2021/03/28 01:01:56;;;;;;;9.30;2.35;;;9.60;65.10;9.80;100809.00;;;;335418;29;85572;-88
2021/03/28 01:02:32;;;;;;;3.55;1.50;;;9.60;65.10;9.60;100812.00;;;;334933;29;82629;-89
2021/03/28 01:03:09;;;;;;;5.57;2.40;;;9.50;65.40;9.80;100814.00;;;;336671;28;84782;-89
2021/03/28 01:04:18;;;;;;;5.93;1.92;;;9.50;65.50;10.00;100810.00;;;;336326;28;83520;-89
2021/03/28 01:04:56;;;;;;;5.60;2.47;;;9.60;65.60;9.90;100816.00;;;;337676;28;86795;-89
2021/03/28 01:05:32;;;;;;;5.35;2.30;;;9.70;65.80;9.70;100812.00;;;;337730;28;83403;-88
2021/03/28 01:05:45;;;;;;;7.53;3.13;;;9.60;66.10;9.90;100812.00;;;;337242;28;84955;-89
2021/03/28 01:05:59;;;;;;;6.80;3.35;;;9.60;65.40;9.90;100812.00;;;;335042;29;83417;-89
2021/03/28 01:06:29;;;;;;;5.45;2.85;;;9.60;65.40;9.90;100804.00;;;;336279;28;83649;-89
2021/03/28 01:06:49;;;;;;;7.70;2.15;;;9.60;66.10;9.80;100803.00;;;;335693;28;83696;-89
2021/03/28 01:07:11;;;;;;;7.57;2.45;;;9.60;65.50;9.60;100809.00;;;;335056;29;85728;-89
2021/03/28 01:07:33;;;;;;;5.80;2.08;;;9.60;65.80;9.60;100800.00;;;;336404;28;83626;-88
2021/03/28 01:07:59;;;;;;;5.22;1.90;;;9.50;65.80;9.40;100806.00;;;;337297;28;85370;-89
2021/03/28 01:08:38;;;;;;;4.35;2.17;;;9.50;66.20;9.50;100800.00;;;;336340;28;82379;-89
2021/03/28 01:09:32;;;;;;;5.80;2.17;;;9.50;66.10;9.60;100802.00;;;;332189;29;84590;-88
2021/03/28 01:10:40;;;;;;;6.38;2.13;;;9.40;66.20;9.50;100811.00;;;;332100;29;82527;-89
2021/03/28 01:11:19;;;;;;;7.70;2.85;;;9.40;66.20;9.70;100804.00;;;;332472;29;85725;-89
2021/03/28 01:12:06;;;;;;;5.18;1.98;;;9.40;66.40;9.60;100807.00;;;;332372;29;83367;-88
2021/03/28 01:12:42;;;;;;;7.80;2.72;;;9.40;66.50;9.50;100810.00;;;;330783;29;83162;-88
2021/03/28 01:13:49;;;;;;;5.90;2.70;;;9.40;66.70;9.60;100804.00;;;;332123;29;83564;-89
2021/03/28 01:14:29;;;;;;;5.82;3.20;;;9.30;66.60;9.80;100801.00;;;;332546;29;85816;-89
2021/03/28 01:14:50;;;;;;;5.70;2.58;;;9.40;66.60;9.70;100806.00;;;;331677;29;83485;-88
2021/03/28 01:15:24;;;;;;;5.68;2.67;;;9.40;67.00;9.80;100805.00;;;;330414;29;85844;-89
2021/03/28 01:16:33;;;;;;;5.72;1.95;;;9.40;67.10;9.80;100812.00;;;;331572;29;82386;-89
2021/03/28 01:17:25;;;;;;;4.90;2.20;;;9.40;66.80;9.70;100806.00;;;;332582;29;85008;-87
2021/03/28 01:17:59;;;;;;;5.07;3.22;;;9.40;66.70;9.50;100812.00;;;;334290;29;82384;-88
2021/03/28 01:18:27;;;;;;;5.93;2.05;;;9.40;67.10;9.60;100805.00;;;;335637;29;83899;-88
2021/03/28 01:19:05;;;;;;;6.35;2.75;;;9.30;67.30;9.50;100805.00;;;;335538;29;82618;-88
2021/03/28 01:19:43;;;;;;;5.28;2.13;;;9.30;67.10;9.70;100803.00;;;;334049;29;84052;-88
2021/03/28 01:20:08;;;;;;;5.28;2.42;;;9.30;67.20;9.70;100804.00;;;;331870;29;82444;-89
2021/03/28 01:20:58;;;;;;;7.63;2.60;;;9.40;67.10;9.70;100804.00;;;;332980;29;83915;-90
2021/03/28 01:21:37;;;;;;;6.13;2.60;;;9.30;67.50;9.70;100803.00;;;;334487;29;82744;-88
2021/03/28 01:21:56;;;;;;;5.35;2.53;;;9.30;67.00;9.70;100799.00;;;;334340;29;84375;-90
2021/03/28 01:22:42;;;;;;;5.68;2.95;;;9.30;67.00;9.60;100802.00;;;;333046;29;82584;-89
2021/03/28 01:23:08;;;;;;;6.72;2.28;;;9.30;67.20;9.20;100795.00;;;;331481;29;86082;-89
2021/03/28 01:23:41;;;;;;;8.02;2.75;;;9.30;67.80;9.40;100802.00;;;;333131;29;82463;-88
2021/03/28 01:24:19;;;;;;;5.60;2.28;;;9.20;67.70;9.40;100795.00;;;;333116;29;84440;-89
2021/03/28 01:24:49;;;;;;;4.65;2.00;;;9.20;67.80;9.40;100795.00;;;;332077;29;83620;-89
2021/03/28 01:25:38;;;;;;;6.53;2.78;;;9.20;67.50;9.50;100806.00;;;;332470;29;85466;-89
2021/03/28 01:26:19;;;;;;;6.40;2.83;;;9.20;67.60;9.50;100804.00;;;;334499;29;83426;-88
2021/03/28 01:27:07;;;;;;;5.04;2.40;;;9.20;67.80;9.60;100805.00;;;;334932;29;85237;-88
2021/03/28 01:27:24;;;;;;;9.43;2.72;;;9.20;67.60;9.50;100801.00;;;;333873;29;83295;-88
2021/03/28 01:28:05;;;;;;;6.20;2.33;;;9.20;67.80;9.50;100797.00;;;;331889;29;85978;-88
2021/03/28 01:28:21;;;;;;;6.53;2.60;;;9.20;67.90;9.60;100797.00;;;;329880;29;83887;-89
2021/03/28 01:28:44;;;;;;;6.55;2.95;;;9.20;68.40;9.60;100803.00;;;;332394;29;82906;-89
2021/03/28 01:29:03;;;;;;;5.53;2.35;;;9.20;67.90;9.60;100803.00;;;;332508;29;82426;-88
2021/03/28 01:29:29;;;;;;;4.80;2.30;;;9.20;68.40;9.30;100809.00;;;;329659;29;85558;-89
2021/03/28 01:29:47;;;;;;;4.30;1.90;;;9.20;68.20;9.40;100805.00;;;;332099;29;82566;-89
2021/03/28 01:30:09;;;;;;;4.95;2.45;;;9.10;68.20;9.30;100807.00;;;;332593;29;85592;-88
2021/03/28 01:30:37;;;;;;;4.72;2.92;;;9.10;68.20;9.30;100797.00;;;;331381;29;82735;-88
2021/03/28 01:31:46;;;;;;;5.55;2.88;;;9.10;68.10;9.00;100809.00;;;;332867;29;85456;-88
2021/03/28 01:32:46;;;;;;;5.50;2.20;;;9.00;68.70;9.10;100805.00;;;;328763;29;84506;-88
2021/03/28 01:33:15;;;;;;;5.70;2.47;;;9.00;68.60;9.20;100807.00;;;;331178;29;84883;-89
2021/03/28 01:33:44;;;;;;;7.93;3.05;;;9.00;68.20;9.30;100806.00;;;;333403;29;82345;-89
2021/03/28 01:34:09;;;;;;;6.25;2.88;;;9.00;68.20;9.30;100806.00;;;;333030;29;83463;-89
2021/03/28 01:34:29;;;;;;;4.32;2.30;;;9.00;68.50;9.30;100810.00;;;;334177;29;82508;-89
2021/03/28 01:35:14;;;;;;;5.20;2.58;;;9.00;69.00;9.20;100816.00;;;;334075;29;84883;-88
2021/03/28 01:35:52;;;;;;;6.50;2.95;;;9.00;68.60;9.40;100803.00;;;;332926;28;84308;-89
2021/03/28 01:36:31;;;;;;;8.40;3.03;;;9.00;68.50;9.10;100795.00;;;;333222;29;84811;-87
2021/03/28 01:37:11;;;;;;;5.28;2.38;;;9.00;68.80;9.10;100804.00;;;;332382;29;83324;-88
2021/03/28 01:37:41;;;;;;;4.75;2.65;;;9.00;68.80;8.90;100798.00;;;;333301;29;82970;-88
2021/03/28 01:38:24;;;;;;;5.80;2.95;;;8.90;69.00;8.80;100797.00;;;;331799;29;82440;-90
2021/03/28 01:39:31;;;;;;;6.03;2.58;;;8.90;69.30;8.90;100811.00;;;;331786;29;84490;-89
2021/03/28 01:40:16;;;;;;;7.32;3.15;;;8.90;69.20;9.10;100806.00;;;;333925;29;83916;-89
2021/03/28 01:40:48;;;;;;;5.82;2.95;;;8.90;69.20;8.70;100802.00;;;;336303;28;86646;-89
2021/03/28 01:41:21;;;;;;;7.70;3.13;;;8.90;69.60;8.60;100805.00;;;;335479;28;83606;-89
2021/03/28 01:42:02;;;;;;;7.18;2.90;;;8.80;70.20;8.90;100808.00;;;;333029;29;87369;-88
2021/03/28 01:43:06;;;;;;;8.10;2.78;;;8.80;69.90;9.20;100808.00;;;;332894;29;83875;-88
2021/03/28 01:43:50;;;;;;;5.07;2.80;;;8.80;69.80;8.90;100803.00;;;;332084;29;86623;-89
2021/03/28 01:44:43;;;;;;;6.40;3.05;;;8.80;70.00;9.00;100808.00;;;;333611;29;85775;-89
2021/03/28 01:45:34;;;;;;;6.72;2.88;;;8.80;69.70;9.00;100804.00;;;;333569;29;88078;-89
2021/03/28 01:46:55;;;;;;;9.10;3.58;;;8.80;69.70;8.90;100812.00;;;;332412;29;84616;-89
2021/03/28 01:47:30;;;;;;;6.53;3.45;;;8.70;70.20;9.00;100804.00;;;;333512;29;87473;-89
2021/03/28 01:47:57;;;;;;;6.50;3.70;;;8.70;70.40;9.10;100800.00;;;;333647;29;82427;-89
2021/03/28 01:48:44;;;;;;;6.13;3.17;;;8.70;70.20;9.10;100802.00;;;;334763;29;86330;-89
2021/03/28 01:49:08;;;;;;;7.07;3.47;;;8.80;70.50;9.20;100791.00;;;;334045;28;84045;-89
2021/03/28 01:49:31;;;;;;;5.93;3.28;;;8.80;70.40;9.00;100796.00;;;;334893;29;85931;-89
2021/03/28 01:49:51;;;;;;;8.02;4.03;;;8.80;70.60;9.10;100806.00;;;;335960;28;83365;-89
2021/03/28 01:50:55;;;;;;;7.15;3.60;;;8.80;70.10;8.80;100806.00;;;;336230;28;86085;-89
2021/03/28 01:51:33;;;;;;;7.07;3.53;;;8.80;70.50;8.50;100803.00;;;;333322;29;83519;-89
2021/03/28 01:52:33;;;;;;;6.90;2.90;;;8.70;70.80;8.50;100803.00;;;;333765;29;83882;-90
2021/03/28 01:53:03;;;;;;;6.32;3.55;;;8.60;70.70;8.50;100802.00;;;;333196;29;83541;-88
2021/03/28 01:53:46;;;;;;;6.68;3.35;;;8.60;71.00;8.40;100797.00;;;;334824;29;85062;-90
2021/03/28 01:54:49;;;;;;;7.97;3.88;;;8.60;70.90;8.30;100804.00;;;;334796;29;83567;-89
2021/03/28 01:55:14;;;;;;;8.45;3.72;;;8.50;71.40;8.20;100799.00;;;;333489;29;85723;-89
2021/03/28 01:55:55;;;;;;;8.02;3.90;;;8.40;71.90;8.20;100799.00;;;;330431;29;83550;-89
2021/03/28 01:56:34;;;;;;;7.22;3.33;;;8.40;72.00;8.20;100809.00;;;;331103;29;87088;-89
2021/03/28 01:57:01;;;;;;;6.80;3.45;;;8.40;71.70;8.00;100807.00;;;;329903;29;83856;-89
2021/03/28 01:57:46;;;;;;;7.53;3.72;;;8.30;71.80;8.60;100808.00;;;;332386;29;85493;-89
2021/03/28 01:58:22;;;;;;;7.03;3.40;;;8.30;71.60;8.50;100806.00;;;;330938;29;83805;-88
2021/03/28 01:59:05;;;;;;;6.30;3.90;;;8.30;71.60;8.60;100813.00;;;;330896;29;86810;-89
2021/03/28 02:00:18;;;;;;;7.25;3.47;;;8.30;71.90;8.30;100811.00;;;;332406;29;83437;-89
2021/03/28 02:01:00;;;;;;;6.13;3.42;;;8.30;71.90;8.40;100813.00;;;;329097;29;85863;-90
2021/03/28 02:01:55;;;;;;;9.18;4.00;;;8.30;72.50;8.40;100814.00;;;;328373;29;83631;-89
2021/03/28 02:02:39;;;;;;;6.13;3.42;;;8.20;72.80;8.20;100809.00;;;;349316;27;75049;-88
2021/03/28 02:03:01;;;;;;;8.05;3.90;;;8.20;72.40;8.30;100808.00;;;;341827;28;82276;-88
2021/03/28 02:04:06;;;;;;;7.68;3.15;;;8.20;72.40;8.60;100814.00;;;;340504;28;83787;-89
2021/03/28 02:04:38;;;;;;;5.22;3.35;;;8.20;72.40;8.60;100812.00;;;;340503;28;82455;-89
2021/03/28 02:05:07;;;;;;;7.30;3.50;;;8.20;72.50;8.40;100808.00;;;;339899;28;84890;-88
2021/03/28 02:05:34;;;;;;;8.80;3.47;;;8.20;72.70;8.30;100813.00;;;;340399;28;83368;-89
2021/03/28 02:06:11;;;;;;;6.60;3.30;;;8.20;72.90;8.50;100806.00;;;;341652;28;84695;-88
2021/03/28 02:06:40;;;;;;;6.43;2.97;;;8.20;72.70;8.50;100818.00;;;;341418;28;83951;-88
2021/03/28 02:07:37;;;;;;;8.43;3.60;;;8.20;72.80;8.40;100807.00;;;;342557;28;85658;-88
2021/03/28 02:08:46;;;;;;;6.25;3.67;;;8.20;72.70;8.60;100816.00;;;;338667;28;83368;-88
2021/03/28 02:09:09;;;;;;;7.90;3.85;;;8.20;72.70;8.60;100810.00;;;;341146;28;86847;-89
2021/03/28 02:09:44;;;;;;;9.60;4.20;;;8.20;72.80;8.40;100804.00;;;;339763;28;83448;-88
2021/03/28 02:10:50;;;;;;;6.55;3.40;;;8.30;72.90;8.40;100808.00;;;;342544;28;83960;-89
2021/03/28 02:11:13;;;;;;;7.05;3.50;;;8.20;72.80;8.50;100810.00;;;;340062;28;82371;-89
2021/03/28 02:11:42;;;;;;;7.10;3.63;;;8.20;73.10;8.80;100807.00;;;;341338;28;85883;-89
2021/03/28 02:12:14;;;;;;;9.34;4.00;;;8.30;73.00;8.40;100808.00;;;;342728;28;82767;-89
2021/03/28 02:12:54;;;;;;;9.00;3.90;;;8.30;73.00;8.00;100814.00;;;;341133;28;84367;-89
2021/03/28 02:13:16;;;;;;;4.63;3.42;;;8.30;73.10;8.10;100813.00;;;;341148;28;83457;-88
2021/03/28 02:13:59;;;;;;;5.93;3.72;;;8.20;73.40;7.80;100803.00;;;;339979;28;85669;-88
2021/03/28 02:14:21;;;;;;;7.53;3.92;;;8.20;73.60;7.90;100810.00;;;;339837;28;83483;-88
2021/03/28 02:15:09;;;;;;;7.63;3.67;;;8.10;74.00;7.90;100808.00;;;;341080;28;84875;-89
2021/03/28 02:15:49;;;;;;;9.07;4.00;;;8.10;74.30;8.30;100813.00;;;;339922;28;83197;-89
2021/03/28 02:16:27;;;;;;;7.88;3.10;;;8.10;73.50;8.40;100806.00;;;;338742;28;84091;-89
2021/03/28 02:16:44;;;;;;;10.15;3.95;;;8.10;73.20;8.50;100806.00;;;;341265;28;82409;-88
2021/03/28 02:17:23;;;;;;;9.32;3.47;;;8.10;73.30;8.50;100811.00;;;;341041;28;84971;-88